Flugplatz Geilenkirchen (ETNG)

Hier findest Du alle Informationen zum Flugplatz Geilenkirchen (ETNG).

Informationen für Piloten zum Flugplatz Geilenkirchen

Hier findest Du alle relevanten Informationen, die Du als Pilot benötigst, um Geilenkirchen anzufliegen.

Flugplatz: Geilenkirchen ICAO-Code: ETNG
Frequenz Turm: 122,100 Mhz GAFOR Gebiet: 31
Frequenz Ground: 122,100 Mhz Mogas: nein
Platzrunde: - Landegebühr: -
Platzhöhe: - Sunrise: 07:28 Uhr UTC
Pisten: 09/27 - 3.050 m x , BIT Sunset: 15:31 Uhr UTC

Mitglieder, die in Geilenkirchen fliegen

Flugwetter am Flugplatz Geilenkirchen

Die METAR Information stammen aus EDLN (43.90 km entfernt).

METAR Code:
2018/12/05 07:50
EDLN 050750Z 12006KT 6000 NSC 02/02 Q1025

Flugschulen am Flugplatz Geilenkirchen

Am Flugplatz Geilenkirchen gibt es leider keine Flugschule.

Benachbarte Flugplätze und Flugschulen

Es gibt 13 weitere Flugplätze in einem Umkreis von 50 km um den Flugplatz Geilenkirchen.

Jetzt anmelden

Passwort vergessen

Umfrage Archiv

Welche Art von Theorieunterricht würde Dir am ehesten zusagen?

Frontalunterricht
63.6 %
Selbststudium
36.4 %
Stimmen: 280 | Diskussion
Anzeige: Roland Aircraft
Statistik Alle Mitglieder

Aktuell sind 27 Besucher online, davon 2 Mitglieder und 25 Gäste.


Mitglieder online:
Lindoriel  usul 

Anzeige: VFR Sprechfunk Simulator


Anzeige: Pocket FMS